sensor_id;sensor_type;location;lat;lon;timestamp;P1;durP1;ratioP1;P2;durP2;ratioP2
69789;SDS011;57064;52.046;4.800;2022-08-25T00:02:05;57.42;;;38.20;;
69789;SDS011;57064;52.046;4.800;2022-08-25T00:04:33;58.65;;;38.55;;
69789;SDS011;57064;52.046;4.800;2022-08-25T00:07:00;57.13;;;38.17;;
69789;SDS011;57064;52.046;4.800;2022-08-25T00:09:27;57.85;;;38.75;;
69789;SDS011;57064;52.046;4.800;2022-08-25T00:11:54;60.10;;;39.33;;
69789;SDS011;57064;52.046;4.800;2022-08-25T00:14:22;57.63;;;38.22;;
69789;SDS011;57064;52.046;4.800;2022-08-25T00:16:57;61.53;;;40.22;;
69789;SDS011;57064;52.046;4.800;2022-08-25T00:19:25;64.22;;;41.88;;
69789;SDS011;57064;52.046;4.800;2022-08-25T00:21:53;60.75;;;40.20;;
69789;SDS011;57064;52.046;4.800;2022-08-25T00:24:20;64.70;;;42.50;;
69789;SDS011;57064;52.046;4.800;2022-08-25T00:26:48;67.95;;;44.15;;
69789;SDS011;57064;52.046;4.800;2022-08-25T00:29:16;65.85;;;43.75;;
69789;SDS011;57064;52.046;4.800;2022-08-25T00:31:42;74.68;;;44.53;;
69789;SDS011;57064;52.046;4.800;2022-08-25T00:34:10;68.68;;;42.65;;
69789;SDS011;57064;52.046;4.800;2022-08-25T00:36:40;76.53;;;44.97;;
69789;SDS011;57064;52.046;4.800;2022-08-25T00:39:07;80.38;;;46.20;;
69789;SDS011;57064;52.046;4.800;2022-08-25T00:41:34;84.13;;;48.67;;
69789;SDS011;57064;52.046;4.800;2022-08-25T00:44:04;85.85;;;51.58;;
69789;SDS011;57064;52.046;4.800;2022-08-25T00:46:36;91.80;;;51.88;;
69789;SDS011;57064;52.046;4.800;2022-08-25T00:49:06;90.32;;;53.53;;
69789;SDS011;57064;52.046;4.800;2022-08-25T00:51:40;90.97;;;49.95;;
69789;SDS011;57064;52.046;4.800;2022-08-25T00:54:14;90.07;;;52.13;;
69789;SDS011;57064;52.046;4.800;2022-08-25T00:56:47;96.47;;;54.67;;
69789;SDS011;57064;52.046;4.800;2022-08-25T00:59:15;96.18;;;53.45;;
69789;SDS011;57064;52.046;4.800;2022-08-25T01:01:46;97.60;;;53.03;;
69789;SDS011;57064;52.046;4.800;2022-08-25T01:04:14;99.45;;;53.38;;
69789;SDS011;57064;52.046;4.800;2022-08-25T01:06:41;99.03;;;53.70;;
69789;SDS011;57064;52.046;4.800;2022-08-25T01:09:09;101.80;;;56.03;;
69789;SDS011;57064;52.046;4.800;2022-08-25T01:11:37;102.32;;;55.33;;
69789;SDS011;57064;52.046;4.800;2022-08-25T01:14:08;95.97;;;54.55;;
69789;SDS011;57064;52.046;4.800;2022-08-25T01:16:36;97.35;;;55.70;;
69789;SDS011;57064;52.046;4.800;2022-08-25T01:19:03;101.15;;;55.72;;
69789;SDS011;57064;52.046;4.800;2022-08-25T01:21:36;97.07;;;55.47;;
69789;SDS011;57064;52.046;4.800;2022-08-25T01:24:04;103.20;;;57.42;;
69789;SDS011;57064;52.046;4.800;2022-08-25T01:26:32;98.75;;;54.92;;
69789;SDS011;57064;52.046;4.800;2022-08-25T01:29:00;99.30;;;55.13;;
69789;SDS011;57064;52.046;4.800;2022-08-25T01:31:49;85.90;;;50.50;;
69789;SDS011;57064;52.046;4.800;2022-08-25T01:34:24;95.07;;;52.72;;
69789;SDS011;57064;52.046;4.800;2022-08-25T01:36:52;99.93;;;55.03;;
69789;SDS011;57064;52.046;4.800;2022-08-25T01:39:19;100.40;;;55.72;;
69789;SDS011;57064;52.046;4.800;2022-08-25T01:44:30;102.95;;;57.85;;
69789;SDS011;57064;52.046;4.800;2022-08-25T01:46:59;98.85;;;55.13;;
69789;SDS011;57064;52.046;4.800;2022-08-25T01:49:25;92.63;;;52.78;;
69789;SDS011;57064;52.046;4.800;2022-08-25T01:51:52;87.82;;;51.47;;
69789;SDS011;57064;52.046;4.800;2022-08-25T01:54:22;90.97;;;51.72;;
69789;SDS011;57064;52.046;4.800;2022-08-25T01:56:48;96.68;;;53.10;;
69789;SDS011;57064;52.046;4.800;2022-08-25T01:59:15;97.78;;;54.85;;
69789;SDS011;57064;52.046;4.800;2022-08-25T02:01:43;100.85;;;56.20;;
69789;SDS011;57064;52.046;4.800;2022-08-25T02:04:10;102.43;;;56.28;;
69789;SDS011;57064;52.046;4.800;2022-08-25T02:06:36;97.43;;;54.65;;
69789;SDS011;57064;52.046;4.800;2022-08-25T02:09:04;93.05;;;52.60;;
69789;SDS011;57064;52.046;4.800;2022-08-25T02:11:36;93.45;;;53.15;;
69789;SDS011;57064;52.046;4.800;2022-08-25T02:14:04;104.75;;;55.10;;
69789;SDS011;57064;52.046;4.800;2022-08-25T02:16:32;93.80;;;53.28;;
69789;SDS011;57064;52.046;4.800;2022-08-25T02:19:00;101.65;;;54.92;;
69789;SDS011;57064;52.046;4.800;2022-08-25T02:21:28;99.20;;;53.53;;
69789;SDS011;57064;52.046;4.800;2022-08-25T02:23:54;95.07;;;54.50;;
69789;SDS011;57064;52.046;4.800;2022-08-25T02:26:21;92.03;;;51.15;;
69789;SDS011;57064;52.046;4.800;2022-08-25T02:28:48;91.07;;;52.38;;
69789;SDS011;57064;52.046;4.800;2022-08-25T02:31:15;86.55;;;48.97;;
69789;SDS011;57064;52.046;4.800;2022-08-25T02:33:43;89.13;;;50.80;;
69789;SDS011;57064;52.046;4.800;2022-08-25T02:36:09;92.15;;;51.58;;
69789;SDS011;57064;52.046;4.800;2022-08-25T02:38:35;95.22;;;52.45;;
69789;SDS011;57064;52.046;4.800;2022-08-25T02:41:07;100.05;;;55.10;;
69789;SDS011;57064;52.046;4.800;2022-08-25T02:43:40;92.22;;;52.72;;
69789;SDS011;57064;52.046;4.800;2022-08-25T02:46:07;98.00;;;52.95;;
69789;SDS011;57064;52.046;4.800;2022-08-25T02:48:34;90.30;;;50.85;;
69789;SDS011;57064;52.046;4.800;2022-08-25T02:51:01;83.97;;;48.45;;
69789;SDS011;57064;52.046;4.800;2022-08-25T02:53:27;80.22;;;48.33;;
69789;SDS011;57064;52.046;4.800;2022-08-25T02:55:54;70.18;;;44.47;;
69789;SDS011;57064;52.046;4.800;2022-08-25T02:58:20;64.65;;;42.22;;
69789;SDS011;57064;52.046;4.800;2022-08-25T03:00:47;57.63;;;36.72;;
69789;SDS011;57064;52.046;4.800;2022-08-25T03:03:14;55.88;;;36.90;;
69789;SDS011;57064;52.046;4.800;2022-08-25T03:05:40;49.25;;;34.85;;
69789;SDS011;57064;52.046;4.800;2022-08-25T03:08:07;42.80;;;30.25;;
69789;SDS011;57064;52.046;4.800;2022-08-25T03:10:34;38.45;;;28.67;;
69789;SDS011;57064;52.046;4.800;2022-08-25T03:13:01;34.67;;;26.63;;
69789;SDS011;57064;52.046;4.800;2022-08-25T03:15:27;33.28;;;24.90;;
69789;SDS011;57064;52.046;4.800;2022-08-25T03:17:53;29.95;;;22.45;;
69789;SDS011;57064;52.046;4.800;2022-08-25T03:20:21;30.17;;;21.10;;
69789;SDS011;57064;52.046;4.800;2022-08-25T03:22:48;27.42;;;20.23;;
69789;SDS011;57064;52.046;4.800;2022-08-25T03:25:15;26.42;;;19.45;;
69789;SDS011;57064;52.046;4.800;2022-08-25T03:28:00;25.08;;;18.30;;
69789;SDS011;57064;52.046;4.800;2022-08-25T03:30:27;23.83;;;18.48;;
69789;SDS011;57064;52.046;4.800;2022-08-25T03:32:53;24.20;;;17.67;;
69789;SDS011;57064;52.046;4.800;2022-08-25T03:35:20;21.52;;;16.63;;
69789;SDS011;57064;52.046;4.800;2022-08-25T03:37:46;21.23;;;16.77;;
69789;SDS011;57064;52.046;4.800;2022-08-25T03:40:14;18.65;;;16.35;;
69789;SDS011;57064;52.046;4.800;2022-08-25T03:42:42;20.75;;;16.13;;
69789;SDS011;57064;52.046;4.800;2022-08-25T03:45:09;22.40;;;15.70;;
69789;SDS011;57064;52.046;4.800;2022-08-25T03:47:36;20.35;;;15.85;;
69789;SDS011;57064;52.046;4.800;2022-08-25T03:50:04;20.67;;;15.57;;
69789;SDS011;57064;52.046;4.800;2022-08-25T03:52:32;20.33;;;14.60;;
69789;SDS011;57064;52.046;4.800;2022-08-25T03:54:59;19.15;;;15.23;;
69789;SDS011;57064;52.046;4.800;2022-08-25T03:57:27;19.17;;;14.57;;
69789;SDS011;57064;52.046;4.800;2022-08-25T03:59:53;19.17;;;14.77;;
69789;SDS011;57064;52.046;4.800;2022-08-25T04:02:20;20.40;;;15.13;;
69789;SDS011;57064;52.046;4.800;2022-08-25T04:04:46;21.27;;;14.68;;
69789;SDS011;57064;52.046;4.800;2022-08-25T04:07:12;19.52;;;14.50;;
69789;SDS011;57064;52.046;4.800;2022-08-25T04:09:38;19.13;;;15.07;;
69789;SDS011;57064;52.046;4.800;2022-08-25T04:12:04;21.38;;;14.05;;
69789;SDS011;57064;52.046;4.800;2022-08-25T04:14:30;18.15;;;13.50;;
69789;SDS011;57064;52.046;4.800;2022-08-25T04:16:56;19.25;;;13.15;;
69789;SDS011;57064;52.046;4.800;2022-08-25T04:19:22;18.70;;;14.15;;
69789;SDS011;57064;52.046;4.800;2022-08-25T04:21:48;16.95;;;12.85;;
69789;SDS011;57064;52.046;4.800;2022-08-25T04:24:15;16.98;;;13.27;;
69789;SDS011;57064;52.046;4.800;2022-08-25T04:26:43;20.13;;;14.15;;
69789;SDS011;57064;52.046;4.800;2022-08-25T04:29:12;17.38;;;13.00;;
69789;SDS011;57064;52.046;4.800;2022-08-25T04:31:41;17.25;;;12.65;;
69789;SDS011;57064;52.046;4.800;2022-08-25T04:34:10;18.13;;;12.88;;
69789;SDS011;57064;52.046;4.800;2022-08-25T04:36:38;17.17;;;12.80;;
69789;SDS011;57064;52.046;4.800;2022-08-25T04:39:04;15.00;;;12.60;;
69789;SDS011;57064;52.046;4.800;2022-08-25T04:41:30;16.85;;;13.10;;
69789;SDS011;57064;52.046;4.800;2022-08-25T04:43:58;17.42;;;13.20;;
69789;SDS011;57064;52.046;4.800;2022-08-25T04:46:26;20.45;;;13.52;;
69789;SDS011;57064;52.046;4.800;2022-08-25T04:48:55;18.73;;;12.95;;
69789;SDS011;57064;52.046;4.800;2022-08-25T04:51:23;18.35;;;13.00;;
69789;SDS011;57064;52.046;4.800;2022-08-25T04:53:51;20.98;;;12.85;;
69789;SDS011;57064;52.046;4.800;2022-08-25T04:56:19;19.50;;;13.10;;
69789;SDS011;57064;52.046;4.800;2022-08-25T04:58:49;20.08;;;13.23;;
69789;SDS011;57064;52.046;4.800;2022-08-25T05:01:17;16.60;;;12.88;;
69789;SDS011;57064;52.046;4.800;2022-08-25T05:03:45;21.60;;;14.25;;
69789;SDS011;57064;52.046;4.800;2022-08-25T05:06:15;18.42;;;14.52;;
69789;SDS011;57064;52.046;4.800;2022-08-25T05:08:42;19.48;;;13.52;;
69789;SDS011;57064;52.046;4.800;2022-08-25T05:11:10;20.02;;;13.15;;
69789;SDS011;57064;52.046;4.800;2022-08-25T05:13:39;15.32;;;12.57;;
69789;SDS011;57064;52.046;4.800;2022-08-25T05:16:05;16.60;;;13.13;;
69789;SDS011;57064;52.046;4.800;2022-08-25T05:18:32;18.10;;;12.80;;
69789;SDS011;57064;52.046;4.800;2022-08-25T05:21:05;15.82;;;12.23;;
69789;SDS011;57064;52.046;4.800;2022-08-25T05:23:34;17.67;;;12.45;;
69789;SDS011;57064;52.046;4.800;2022-08-25T05:26:02;19.35;;;12.90;;
69789;SDS011;57064;52.046;4.800;2022-08-25T05:28:30;15.35;;;12.60;;
69789;SDS011;57064;52.046;4.800;2022-08-25T05:30:57;14.93;;;11.65;;
69789;SDS011;57064;52.046;4.800;2022-08-25T05:33:25;17.23;;;12.25;;
69789;SDS011;57064;52.046;4.800;2022-08-25T05:35:51;15.90;;;12.38;;
69789;SDS011;57064;52.046;4.800;2022-08-25T05:38:17;15.57;;;12.10;;
69789;SDS011;57064;52.046;4.800;2022-08-25T05:40:44;14.00;;;11.20;;
69789;SDS011;57064;52.046;4.800;2022-08-25T05:43:10;16.65;;;11.82;;
69789;SDS011;57064;52.046;4.800;2022-08-25T05:45:36;16.05;;;11.60;;
69789;SDS011;57064;52.046;4.800;2022-08-25T05:48:03;14.98;;;11.77;;
69789;SDS011;57064;52.046;4.800;2022-08-25T05:50:29;17.38;;;10.90;;
69789;SDS011;57064;52.046;4.800;2022-08-25T05:52:55;14.85;;;10.32;;
69789;SDS011;57064;52.046;4.800;2022-08-25T05:55:21;16.02;;;11.00;;
69789;SDS011;57064;52.046;4.800;2022-08-25T05:57:47;12.43;;;10.40;;
69789;SDS011;57064;52.046;4.800;2022-08-25T06:00:13;13.20;;;10.63;;
69789;SDS011;57064;52.046;4.800;2022-08-25T06:02:41;14.52;;;10.20;;
69789;SDS011;57064;52.046;4.800;2022-08-25T06:05:20;13.15;;;9.27;;
69789;SDS011;57064;52.046;4.800;2022-08-25T06:07:48;12.23;;;9.30;;
69789;SDS011;57064;52.046;4.800;2022-08-25T06:10:16;13.23;;;9.55;;
69789;SDS011;57064;52.046;4.800;2022-08-25T06:12:43;14.65;;;9.60;;
69789;SDS011;57064;52.046;4.800;2022-08-25T06:15:19;13.07;;;9.30;;
69789;SDS011;57064;52.046;4.800;2022-08-25T06:17:48;10.82;;;9.13;;
69789;SDS011;57064;52.046;4.800;2022-08-25T06:20:15;17.02;;;9.18;;
69789;SDS011;57064;52.046;4.800;2022-08-25T06:22:44;12.43;;;9.43;;
69789;SDS011;57064;52.046;4.800;2022-08-25T06:25:11;10.55;;;8.55;;
69789;SDS011;57064;52.046;4.800;2022-08-25T06:27:39;12.38;;;9.18;;
69789;SDS011;57064;52.046;4.800;2022-08-25T06:30:07;11.45;;;8.85;;
69789;SDS011;57064;52.046;4.800;2022-08-25T06:32:36;17.65;;;8.50;;
69789;SDS011;57064;52.046;4.800;2022-08-25T06:35:05;13.93;;;9.13;;
69789;SDS011;57064;52.046;4.800;2022-08-25T06:37:33;12.27;;;9.35;;
69789;SDS011;57064;52.046;4.800;2022-08-25T06:39:59;14.43;;;8.50;;
69789;SDS011;57064;52.046;4.800;2022-08-25T06:42:25;12.10;;;9.80;;
69789;SDS011;57064;52.046;4.800;2022-08-25T06:44:51;13.35;;;9.10;;
69789;SDS011;57064;52.046;4.800;2022-08-25T06:47:18;12.00;;;8.65;;
69789;SDS011;57064;52.046;4.800;2022-08-25T06:49:44;12.48;;;8.77;;
69789;SDS011;57064;52.046;4.800;2022-08-25T06:52:11;14.30;;;9.48;;
69789;SDS011;57064;52.046;4.800;2022-08-25T06:54:38;15.20;;;9.57;;
69789;SDS011;57064;52.046;4.800;2022-08-25T06:57:05;14.60;;;9.10;;
69789;SDS011;57064;52.046;4.800;2022-08-25T06:59:32;11.38;;;8.82;;
69789;SDS011;57064;52.046;4.800;2022-08-25T07:01:59;14.82;;;9.30;;
69789;SDS011;57064;52.046;4.800;2022-08-25T07:04:25;18.67;;;9.48;;
69789;SDS011;57064;52.046;4.800;2022-08-25T07:06:52;12.98;;;8.70;;
69789;SDS011;57064;52.046;4.800;2022-08-25T07:09:18;13.27;;;9.60;;
69789;SDS011;57064;52.046;4.800;2022-08-25T07:11:45;11.98;;;9.00;;
69789;SDS011;57064;52.046;4.800;2022-08-25T07:14:12;15.40;;;9.70;;
69789;SDS011;57064;52.046;4.800;2022-08-25T07:16:40;11.60;;;8.55;;
69789;SDS011;57064;52.046;4.800;2022-08-25T07:19:07;10.68;;;8.57;;
69789;SDS011;57064;52.046;4.800;2022-08-25T07:21:34;11.63;;;8.60;;
69789;SDS011;57064;52.046;4.800;2022-08-25T07:24:06;13.05;;;9.00;;
69789;SDS011;57064;52.046;4.800;2022-08-25T07:26:34;11.73;;;7.68;;
69789;SDS011;57064;52.046;4.800;2022-08-25T07:29:03;12.07;;;7.82;;
69789;SDS011;57064;52.046;4.800;2022-08-25T07:34:00;12.52;;;7.45;;
69789;SDS011;57064;52.046;4.800;2022-08-25T07:36:44;14.18;;;8.77;;
69789;SDS011;57064;52.046;4.800;2022-08-25T07:39:10;10.60;;;7.60;;
69789;SDS011;57064;52.046;4.800;2022-08-25T07:41:38;9.25;;;7.60;;
69789;SDS011;57064;52.046;4.800;2022-08-25T07:44:06;12.55;;;8.43;;
69789;SDS011;57064;52.046;4.800;2022-08-25T07:46:33;9.57;;;7.70;;
69789;SDS011;57064;52.046;4.800;2022-08-25T07:48:59;10.93;;;7.68;;
69789;SDS011;57064;52.046;4.800;2022-08-25T07:51:25;13.27;;;8.15;;
69789;SDS011;57064;52.046;4.800;2022-08-25T07:53:52;12.35;;;7.82;;
69789;SDS011;57064;52.046;4.800;2022-08-25T07:56:18;11.05;;;7.60;;
69789;SDS011;57064;52.046;4.800;2022-08-25T07:58:44;10.43;;;7.28;;
69789;SDS011;57064;52.046;4.800;2022-08-25T08:01:14;10.85;;;7.18;;
69789;SDS011;57064;52.046;4.800;2022-08-25T08:03:45;10.48;;;6.53;;
69789;SDS011;57064;52.046;4.800;2022-08-25T08:06:13;10.07;;;6.63;;
69789;SDS011;57064;52.046;4.800;2022-08-25T08:08:41;8.98;;;6.78;;
69789;SDS011;57064;52.046;4.800;2022-08-25T08:11:20;8.63;;;6.40;;
69789;SDS011;57064;52.046;4.800;2022-08-25T08:13:52;10.63;;;6.32;;
69789;SDS011;57064;52.046;4.800;2022-08-25T08:16:20;8.50;;;6.05;;
69789;SDS011;57064;52.046;4.800;2022-08-25T08:18:47;9.70;;;6.20;;
69789;SDS011;57064;52.046;4.800;2022-08-25T08:21:15;8.95;;;5.97;;
69789;SDS011;57064;52.046;4.800;2022-08-25T08:23:46;12.60;;;6.22;;
69789;SDS011;57064;52.046;4.800;2022-08-25T08:26:13;8.45;;;5.75;;
69789;SDS011;57064;52.046;4.800;2022-08-25T08:28:40;10.23;;;6.28;;
69789;SDS011;57064;52.046;4.800;2022-08-25T08:31:06;8.13;;;5.95;;
69789;SDS011;57064;52.046;4.800;2022-08-25T08:33:32;5.85;;;5.25;;
69789;SDS011;57064;52.046;4.800;2022-08-25T08:36:03;12.93;;;5.65;;
69789;SDS011;57064;52.046;4.800;2022-08-25T08:38:34;10.20;;;6.22;;
69789;SDS011;57064;52.046;4.800;2022-08-25T08:52:59;8.55;;;5.32;;
69789;SDS011;57064;52.046;4.800;2022-08-25T08:59:12;10.60;;;5.40;;
69789;SDS011;57064;52.046;4.800;2022-08-25T09:01:34;8.48;;;5.10;;
69789;SDS011;57064;52.046;4.800;2022-08-25T09:04:08;8.27;;;5.53;;
69789;SDS011;57064;52.046;4.800;2022-08-25T09:06:47;7.43;;;4.60;;
69789;SDS011;57064;52.046;4.800;2022-08-25T09:09:17;9.80;;;5.72;;
69789;SDS011;57064;52.046;4.800;2022-08-25T09:12:10;8.50;;;4.20;;
69789;SDS011;57064;52.046;4.800;2022-08-25T09:14:53;6.88;;;4.30;;
69789;SDS011;57064;52.046;4.800;2022-08-25T09:20:28;7.85;;;4.35;;
69789;SDS011;57064;52.046;4.800;2022-08-25T09:31:26;7.15;;;3.90;;
69789;SDS011;57064;52.046;4.800;2022-08-25T09:33:58;6.65;;;3.75;;
69789;SDS011;57064;52.046;4.800;2022-08-25T09:36:27;5.88;;;3.58;;
69789;SDS011;57064;52.046;4.800;2022-08-25T09:38:54;6.57;;;3.33;;
69789;SDS011;57064;52.046;4.800;2022-08-25T09:54:56;4.55;;;2.65;;
69789;SDS011;57064;52.046;4.800;2022-08-25T10:03:01;8.10;;;2.92;;
69789;SDS011;57064;52.046;4.800;2022-08-25T10:05:34;4.68;;;2.75;;
69789;SDS011;57064;52.046;4.800;2022-08-25T10:08:31;5.88;;;3.00;;
69789;SDS011;57064;52.046;4.800;2022-08-25T10:11:04;4.90;;;3.08;;
69789;SDS011;57064;52.046;4.800;2022-08-25T10:13:37;5.85;;;2.90;;
69789;SDS011;57064;52.046;4.800;2022-08-25T10:19:02;7.10;;;3.35;;
69789;SDS011;57064;52.046;4.800;2022-08-25T10:22:00;5.00;;;2.65;;
69789;SDS011;57064;52.046;4.800;2022-08-25T10:24:26;7.65;;;2.97;;
69789;SDS011;57064;52.046;4.800;2022-08-25T10:29:39;5.75;;;2.95;;
69789;SDS011;57064;52.046;4.800;2022-08-25T10:35:17;6.72;;;3.17;;
69789;SDS011;57064;52.046;4.800;2022-08-25T10:50:13;4.28;;;2.75;;
69789;SDS011;57064;52.046;4.800;2022-08-25T10:55:56;8.85;;;2.60;;
69789;SDS011;57064;52.046;4.800;2022-08-25T11:03:51;4.25;;;2.30;;
69789;SDS011;57064;52.046;4.800;2022-08-25T11:06:37;5.30;;;2.65;;
69789;SDS011;57064;52.046;4.800;2022-08-25T11:09:09;6.05;;;3.58;;
69789;SDS011;57064;52.046;4.800;2022-08-25T11:11:44;8.93;;;2.73;;
69789;SDS011;57064;52.046;4.800;2022-08-25T11:19:37;4.18;;;2.65;;
69789;SDS011;57064;52.046;4.800;2022-08-25T11:28:02;3.35;;;2.53;;
69789;SDS011;57064;52.046;4.800;2022-08-25T11:30:40;4.70;;;2.65;;
69789;SDS011;57064;52.046;4.800;2022-08-25T11:33:11;4.15;;;2.38;;
69789;SDS011;57064;52.046;4.800;2022-08-25T11:38:22;3.65;;;2.40;;
69789;SDS011;57064;52.046;4.800;2022-08-25T11:44:43;3.40;;;2.85;;
69789;SDS011;57064;52.046;4.800;2022-08-25T11:47:50;4.70;;;2.42;;
69789;SDS011;57064;52.046;4.800;2022-08-25T11:50:36;6.25;;;3.08;;
69789;SDS011;57064;52.046;4.800;2022-08-25T11:53:21;3.33;;;2.50;;
69789;SDS011;57064;52.046;4.800;2022-08-25T11:55:54;7.75;;;2.63;;
69789;SDS011;57064;52.046;4.800;2022-08-25T12:26:20;7.97;;;2.45;;
69789;SDS011;57064;52.046;4.800;2022-08-25T12:29:09;2.33;;;2.00;;
69789;SDS011;57064;52.046;4.800;2022-08-25T12:32:20;3.40;;;1.98;;
69789;SDS011;57064;52.046;4.800;2022-08-25T12:37:57;2.75;;;2.15;;
69789;SDS011;57064;52.046;4.800;2022-08-25T12:40:37;4.55;;;2.40;;
69789;SDS011;57064;52.046;4.800;2022-08-25T12:45:54;4.97;;;2.50;;
69789;SDS011;57064;52.046;4.800;2022-08-25T12:54:35;3.13;;;2.30;;
69789;SDS011;57064;52.046;4.800;2022-08-25T12:59:50;5.95;;;2.50;;
69789;SDS011;57064;52.046;4.800;2022-08-25T13:14:54;5.35;;;2.60;;
69789;SDS011;57064;52.046;4.800;2022-08-25T13:17:29;5.20;;;2.25;;
69789;SDS011;57064;52.046;4.800;2022-08-25T13:22:48;3.92;;;2.38;;
69789;SDS011;57064;52.046;4.800;2022-08-25T13:25:19;3.63;;;2.17;;
69789;SDS011;57064;52.046;4.800;2022-08-25T13:27:51;4.93;;;2.42;;
69789;SDS011;57064;52.046;4.800;2022-08-25T13:30:24;3.58;;;2.10;;
69789;SDS011;57064;52.046;4.800;2022-08-25T13:32:55;4.03;;;2.25;;
69789;SDS011;57064;52.046;4.800;2022-08-25T13:35:23;4.38;;;2.67;;
69789;SDS011;57064;52.046;4.800;2022-08-25T13:38:10;4.43;;;2.72;;
69789;SDS011;57064;52.046;4.800;2022-08-25T13:40:37;4.95;;;2.35;;
69789;SDS011;57064;52.046;4.800;2022-08-25T13:43:08;2.17;;;1.98;;
69789;SDS011;57064;52.046;4.800;2022-08-25T13:45:39;3.75;;;2.28;;
69789;SDS011;57064;52.046;4.800;2022-08-25T13:48:08;2.60;;;2.03;;
69789;SDS011;57064;52.046;4.800;2022-08-25T13:50:36;3.42;;;2.38;;
69789;SDS011;57064;52.046;4.800;2022-08-25T13:53:15;8.18;;;2.67;;
69789;SDS011;57064;52.046;4.800;2022-08-25T13:55:47;4.13;;;2.22;;
69789;SDS011;57064;52.046;4.800;2022-08-25T13:58:30;3.85;;;2.20;;
69789;SDS011;57064;52.046;4.800;2022-08-25T14:01:14;4.13;;;2.17;;
69789;SDS011;57064;52.046;4.800;2022-08-25T14:03:49;4.75;;;2.55;;
69789;SDS011;57064;52.046;4.800;2022-08-25T14:08:48;7.80;;;2.42;;
69789;SDS011;57064;52.046;4.800;2022-08-25T14:19:20;3.63;;;2.58;;
69789;SDS011;57064;52.046;4.800;2022-08-25T14:21:48;11.30;;;3.33;;
69789;SDS011;57064;52.046;4.800;2022-08-25T14:24:15;4.75;;;2.50;;
69789;SDS011;57064;52.046;4.800;2022-08-25T14:26:43;4.03;;;2.80;;
69789;SDS011;57064;52.046;4.800;2022-08-25T14:29:09;4.65;;;3.70;;
69789;SDS011;57064;52.046;4.800;2022-08-25T14:31:36;5.55;;;3.92;;
69789;SDS011;57064;52.046;4.800;2022-08-25T14:34:17;7.60;;;4.30;;
69789;SDS011;57064;52.046;4.800;2022-08-25T14:36:47;7.88;;;3.60;;
69789;SDS011;57064;52.046;4.800;2022-08-25T14:39:14;9.50;;;4.57;;
69789;SDS011;57064;52.046;4.800;2022-08-25T14:41:40;8.80;;;3.97;;
69789;SDS011;57064;52.046;4.800;2022-08-25T14:44:07;9.27;;;3.70;;
69789;SDS011;57064;52.046;4.800;2022-08-25T14:46:35;5.55;;;3.75;;
69789;SDS011;57064;52.046;4.800;2022-08-25T14:49:09;7.13;;;3.70;;
69789;SDS011;57064;52.046;4.800;2022-08-25T14:51:39;5.97;;;3.88;;
69789;SDS011;57064;52.046;4.800;2022-08-25T14:54:08;5.05;;;3.58;;
69789;SDS011;57064;52.046;4.800;2022-08-25T14:56:38;6.85;;;4.38;;
69789;SDS011;57064;52.046;4.800;2022-08-25T14:59:06;10.57;;;5.57;;
69789;SDS011;57064;52.046;4.800;2022-08-25T15:01:32;6.82;;;4.20;;
69789;SDS011;57064;52.046;4.800;2022-08-25T15:06:33;7.43;;;3.83;;
69789;SDS011;57064;52.046;4.800;2022-08-25T15:09:00;8.13;;;4.20;;
69789;SDS011;57064;52.046;4.800;2022-08-25T15:11:41;5.80;;;4.10;;
69789;SDS011;57064;52.046;4.800;2022-08-25T15:14:09;6.97;;;3.88;;
69789;SDS011;57064;52.046;4.800;2022-08-25T15:16:40;5.60;;;4.28;;
69789;SDS011;57064;52.046;4.800;2022-08-25T15:19:12;10.63;;;4.38;;
69789;SDS011;57064;52.046;4.800;2022-08-25T15:21:40;5.57;;;4.15;;
69789;SDS011;57064;52.046;4.800;2022-08-25T15:24:07;6.85;;;4.10;;
69789;SDS011;57064;52.046;4.800;2022-08-25T15:26:39;7.68;;;4.50;;
69789;SDS011;57064;52.046;4.800;2022-08-25T15:29:09;7.03;;;4.10;;
69789;SDS011;57064;52.046;4.800;2022-08-25T15:31:36;8.30;;;4.93;;
69789;SDS011;57064;52.046;4.800;2022-08-25T15:34:04;10.85;;;6.90;;
69789;SDS011;57064;52.046;4.800;2022-08-25T15:36:32;6.60;;;6.00;;
69789;SDS011;57064;52.046;4.800;2022-08-25T15:38:58;8.98;;;5.85;;
69789;SDS011;57064;52.046;4.800;2022-08-25T15:41:24;10.15;;;7.55;;
69789;SDS011;57064;52.046;4.800;2022-08-25T15:43:51;11.07;;;8.20;;
69789;SDS011;57064;52.046;4.800;2022-08-25T15:46:18;12.70;;;9.18;;
69789;SDS011;57064;52.046;4.800;2022-08-25T15:48:45;15.77;;;11.50;;
69789;SDS011;57064;52.046;4.800;2022-08-25T15:51:12;15.35;;;13.55;;
69789;SDS011;57064;52.046;4.800;2022-08-25T15:53:41;20.85;;;17.52;;
69789;SDS011;57064;52.046;4.800;2022-08-25T15:56:08;22.33;;;19.65;;
69789;SDS011;57064;52.046;4.800;2022-08-25T15:58:38;23.08;;;20.67;;
69789;SDS011;57064;52.046;4.800;2022-08-25T16:01:04;25.73;;;22.60;;
69789;SDS011;57064;52.046;4.800;2022-08-25T16:03:30;30.30;;;24.25;;
69789;SDS011;57064;52.046;4.800;2022-08-25T16:05:56;31.35;;;27.90;;
69789;SDS011;57064;52.046;4.800;2022-08-25T16:08:22;35.22;;;30.08;;
69789;SDS011;57064;52.046;4.800;2022-08-25T16:10:48;37.05;;;31.83;;
69789;SDS011;57064;52.046;4.800;2022-08-25T16:13:14;38.35;;;33.65;;
69789;SDS011;57064;52.046;4.800;2022-08-25T16:15:44;42.08;;;33.33;;
69789;SDS011;57064;52.046;4.800;2022-08-25T16:18:12;39.63;;;32.95;;
69789;SDS011;57064;52.046;4.800;2022-08-25T16:20:38;44.28;;;34.78;;
69789;SDS011;57064;52.046;4.800;2022-08-25T16:23:09;43.20;;;33.05;;
69789;SDS011;57064;52.046;4.800;2022-08-25T16:25:39;43.33;;;31.60;;
69789;SDS011;57064;52.046;4.800;2022-08-25T16:28:07;43.45;;;33.60;;
69789;SDS011;57064;52.046;4.800;2022-08-25T16:30:36;43.33;;;31.33;;
69789;SDS011;57064;52.046;4.800;2022-08-25T16:33:06;44.67;;;36.17;;
69789;SDS011;57064;52.046;4.800;2022-08-25T16:35:32;45.65;;;34.75;;
69789;SDS011;57064;52.046;4.800;2022-08-25T16:37:59;52.28;;;36.78;;
69789;SDS011;57064;52.046;4.800;2022-08-25T16:40:26;45.17;;;34.03;;
69789;SDS011;57064;52.046;4.800;2022-08-25T16:42:52;47.28;;;37.00;;
69789;SDS011;57064;52.046;4.800;2022-08-25T16:45:19;49.33;;;35.58;;
69789;SDS011;57064;52.046;4.800;2022-08-25T16:47:45;43.97;;;34.53;;
69789;SDS011;57064;52.046;4.800;2022-08-25T16:50:11;53.13;;;38.78;;
69789;SDS011;57064;52.046;4.800;2022-08-25T16:52:38;47.03;;;35.65;;
69789;SDS011;57064;52.046;4.800;2022-08-25T16:55:22;56.20;;;36.83;;
69789;SDS011;57064;52.046;4.800;2022-08-25T16:57:50;49.15;;;36.70;;
69789;SDS011;57064;52.046;4.800;2022-08-25T17:00:20;49.65;;;36.42;;
69789;SDS011;57064;52.046;4.800;2022-08-25T17:02:48;47.20;;;36.13;;
69789;SDS011;57064;52.046;4.800;2022-08-25T17:05:18;53.53;;;37.92;;
69789;SDS011;57064;52.046;4.800;2022-08-25T17:07:45;50.72;;;37.78;;
69789;SDS011;57064;52.046;4.800;2022-08-25T17:10:35;56.20;;;39.92;;
69789;SDS011;57064;52.046;4.800;2022-08-25T17:13:02;53.97;;;39.60;;
69789;SDS011;57064;52.046;4.800;2022-08-25T17:15:29;53.13;;;39.90;;
69789;SDS011;57064;52.046;4.800;2022-08-25T17:17:55;55.00;;;42.97;;
69789;SDS011;57064;52.046;4.800;2022-08-25T17:20:21;59.97;;;42.55;;
69789;SDS011;57064;52.046;4.800;2022-08-25T17:22:48;54.50;;;38.75;;
69789;SDS011;57064;52.046;4.800;2022-08-25T17:25:14;57.90;;;41.47;;
69789;SDS011;57064;52.046;4.800;2022-08-25T17:27:41;58.17;;;41.78;;
69789;SDS011;57064;52.046;4.800;2022-08-25T17:30:07;62.70;;;43.50;;
69789;SDS011;57064;52.046;4.800;2022-08-25T17:32:33;65.13;;;46.00;;
69789;SDS011;57064;52.046;4.800;2022-08-25T17:35:00;61.70;;;46.35;;